SLCP

Details ICAO SLCP
Name Concepcion
Region Bolivia
Timezone America/La_Paz (UTC-4.0)
Plans Departing 0
Arriving 1
Stats Elevation 1,621 ft / 494 m (AMSL)
Location -16.146944° -62.021667°
Runways 1
Magnetic Variation 13.124° W
Sunrise 2017-12-13 09:31:30 UTC / 2017-12-13 05:31:30 Local
Sunset 2017-12-13 22:36:04 UTC / 2017-12-13 18:36:04 Local
Advertisement - Login to hide

Runways

ID Width Length Bearing (true) Bearing (mag) Surface Threshold Offset Overrun Length
16 82 ft / 25 m 5,745 ft / 1,751 m 152.00° 165.12° Concrete 0 ft / 0 m 0 ft / 0 m
34 82 ft / 25 m 5,745 ft / 1,751 m 332.00° 345.12° Concrete 0 ft / 0 m 0 ft / 0 m

Map

Weather


0- 5 10 15 20 25 30 35+ Temperature / ° C

Clouds and Precipitation
Forecast for 2017-12-14 00:00 UTC. Updated an hour ago

Ground ~20,000 ft ~40,000 ft Winds

METAR

SLCP 132000Z 00000KT 9999 SCT020 34/22 Q1011

TAF

Not found
Warning: Do not use this data for real-world aviation or navigation. No guarantee of current accuracy is given.